Asian Breeze — 9VYM — position and weather

sailwx.info

Track history (hours):
 
Tides and Currents Weather Stations Pressure Air Temp Water Temp Dewpoint Dewpoint Depression Visibility Wind Speed Wind Dir Waves Ship Positions

Asian Breeze

Last reported at 2018-Apr-05 04:31 UTC. Time now 2018-May-26 04:32 UTC.
Position N 40°02' E 026°15'.
Warning: this ship's position is 51 days out of date.

Length 164 m; draft 6.3 m.

Type: Cargo ship. MMSI: 564994000.

Date/timePositionNaut miles runAvg speedWind from/ knotsBaromVisibWave heightAir tempDewpointWater temp
2018-Apr-05 04:31N 40°02' E 026°15'013.7
2018-Apr-05 04:30N 40°02' E 026°15'7 9.0
2018-Apr-05 03:45N 39°60' E 026°06'410.4
2018-Apr-05 03:22N 39°58' E 026°01'514.5
2018-Apr-05 03:00N 39°55' E 025°56'816.5
2018-Apr-05 02:30N 39°49' E 025°48'11516.4
2018-Apr-04 19:28N 37°54' E 025°32'816.6
2018-Apr-04 19:00N 37°47' E 025°35'816.5
2018-Apr-04 18:30N 37°39' E 025°38'1016.6
2018-Apr-04 17:56N 37°30' E 025°41'1012.3
2018-Apr-04 17:08N 37°21' E 025°35'216.2
2018-Apr-04 17:00N 37°20' E 025°33'816.6
2018-Apr-04 16:30N 37°17' E 025°23'816.6
2018-Apr-04 16:00N 37°15' E 025°13'816.6
2018-Apr-04 15:30N 37°15' E 025°03'816.7
2018-Apr-04 15:00N 37°13' E 024°52'48515.1
2018-Apr-03 06:56N 36°12' E 014°52'717.0
2018-Apr-03 06:30N 36°13' E 014°43'815.9
2018-Apr-03 06:00N 36°14' E 014°33'918.4
2018-Apr-03 05:29N 36°17' E 014°22'714.4
2018-Apr-03 05:00N 36°20' E 014°14'916.7
2018-Apr-03 04:29N 36°23' E 014°04'816.0
2018-Apr-03 03:58N 36°26' E 013°54'716.1
2018-Apr-03 03:30N 36°29' E 013°46'916.0
2018-Apr-03 02:55N 36°33' E 013°35'2316.7
2018-Apr-03 01:32N 36°42' E 013°09'313.4
2018-Apr-03 01:21N 36°43' E 013°06'616.3
2018-Apr-03 00:59N 36°45' E 012°59'1016.6
2018-Apr-03 00:23N 36°49' E 012°47'719.0
2018-Apr-03 00:00N 36°52' E 012°39'33115.9
2018-Apr-02 03:15N 37°22' E 005°46'3516.5
2018-Apr-02 01:07N 37°18' E 005°02'216.4
2018-Apr-02 00:59N 37°18' E 004°59'816.2
2018-Apr-02 00:29N 37°16' E 004°49'816.8
2018-Apr-02 00:00N 37°15' E 004°39'816.9
2018-Apr-01 23:30N 37°14' E 004°29'1316.2
2018-Apr-01 22:43N 37°14' E 004°13'316.3
2018-Apr-01 22:30N 37°13' E 004°08'916.8
2018-Apr-01 22:00N 37°13' E 003°58'916.6
2018-Apr-01 21:27N 37°13' E 003°46'716.0
2018-Apr-01 21:00N 37°12' E 003°37'816.3
2018-Apr-01 20:30N 37°12' E 003°27'816.3
2018-Apr-01 20:01N 37°11' E 003°17'916.7
2018-Apr-01 19:28N 37°09' E 003°06'916.3
2018-Apr-01 18:56N 37°07' E 002°55'716.4
2018-Apr-01 18:30N 37°06' E 002°46'816.3
2018-Apr-01 18:01N 37°04' E 002°37'916.7
2018-Apr-01 17:29N 37°02' E 002°26'817.3
2018-Apr-01 17:00N 36°60' E 002°16'917.6
2018-Apr-01 16:30N 36°58' E 002°05'817.0
2018-Apr-01 16:00N 36°56' E 001°55'816.8
2018-Apr-01 15:30N 36°53' E 001°45'816.8
2018-Apr-01 15:00N 36°51' E 001°35'916.9
2018-Apr-01 14:30N 36°49' E 001°24'816.8
2018-Apr-01 14:00N 36°47' E 001°14'816.8
2018-Apr-01 13:30N 36°45' E 001°04'816.7
2018-Apr-01 13:01N 36°43' E 000°54'816.6
2018-Apr-01 12:30N 36°41' E 000°44'916.7
2018-Apr-01 11:58N 36°39' E 000°33'816.9
2018-Apr-01 11:30N 36°36' E 000°24'916.9
2018-Apr-01 11:00N 36°34' E 000°13'26317.5
2018-Mar-31 19:58N 35°59' W 005°10'919.2
2018-Mar-31 19:30N 35°58' W 005°21'26214.6
2018-Mar-31 01:35N 38°18' W 009°60'117.3
2018-Mar-31 01:30N 38°20' W 010°00'917.3
2018-Mar-31 01:00N 38°28' W 010°04'917.1
2018-Mar-31 00:28N 38°37' W 010°06'817.4
2018-Mar-31 00:00N 38°45' W 010°06'917.1
2018-Mar-30 23:30N 38°53' W 010°06'817.0
2018-Mar-30 23:00N 39°02' W 010°05'917.4
2018-Mar-30 22:30N 39°10' W 010°04'917.2
2018-Mar-30 22:00N 39°19' W 010°02'  
2018-Mar-28 12:16N 49°49' W 003°21'817.2
2018-Mar-28 11:47N 49°52' W 003°10'618.0
2018-Mar-28 11:26N 49°56' W 003°01'918.4
2018-Mar-28 10:58N 49°58' W 002°49'9416.5
2018-Mar-28 05:15N 50°26' W 000°28'415.0
2018-Mar-28 05:00N 50°28' W 000°22'815.4
2018-Mar-28 04:30N 50°30' W 000°11'815.8
2018-Mar-28 04:00N 50°32' E 000°01'816.2
2018-Mar-28 03:30N 50°34' E 000°14'816.7
2018-Mar-28 03:00N 50°36' E 000°26'917.2
2018-Mar-28 02:30N 50°38' E 000°39'917.1
2018-Mar-28 02:00N 50°42' E 000°51'917.1
2018-Mar-28 01:30N 50°47' E 001°02'1116.8
2018-Mar-28 00:53N 50°53' E 001°16'616.2
2018-Mar-28 00:30N 50°58' E 001°22'815.9
2018-Mar-28 00:00N 51°04' E 001°30'714.8
2018-Mar-27 23:30N 51°09' E 001°38'714.8
2018-Mar-27 23:00N 51°15' E 001°47'815.0
2018-Mar-27 22:30N 51°21' E 001°52'714.9
2018-Mar-27 22:00N 51°28' E 001°58'815.5
2018-Mar-27 21:30N 51°33' E 002°06'815.9
2018-Mar-27 21:00N 51°39' E 002°16'816.3
2018-Mar-27 20:30N 51°45' E 002°25'13616.8
2018-Mar-27 12:26N 53°34' E 004°37'31516.7
2018-Mar-26 17:35N 57°45' E 010°16'218.0
2018-Mar-26 17:27N 57°46' E 010°20'818.0
2018-Mar-26 17:00N 57°49' E 010°34'918.0
2018-Mar-26 16:30N 57°48' E 010°50'917.9
2018-Mar-26 16:00N 57°41' E 011°01'917.8
2018-Mar-26 15:30N 57°35' E 011°13'917.5
2018-Mar-26 15:00N 57°29' E 011°25'816.6
2018-Mar-26 14:30N 57°21' E 011°31'817.0
2018-Mar-26 14:00N 57°13' E 011°36'917.1
2018-Mar-26 13:30N 57°05' E 011°41'5916.4
2018-Mar-26 09:55N 56°11' E 012°24'716.6
2018-Mar-26 09:30N 56°07' E 012°34'714.4
2018-Mar-26 09:00N 56°01' E 012°41'714.7
2018-Mar-26 08:30N 55°54' E 012°44'815.7
2018-Mar-26 08:00N 55°46' E 012°42'714.8
2018-Mar-26 07:30N 55°39' E 012°42'612.0
2018-Mar-26 07:00N 55°33' E 012°42'612.7
2018-Mar-26 06:30N 55°27' E 012°42'714.8
2018-Mar-26 06:01N 55°19' E 012°40'816.1
2018-Mar-26 05:30N 55°16' E 012°53'917.3
2018-Mar-26 05:00N 55°15' E 013°08'  
Track history (hours):
 
Tides and Currents Weather Stations Pressure Air Temp Water Temp Dewpoint Dewpoint Depression Visibility Wind Speed Wind Dir Waves Ship Positions

Asian Breeze

Last reported at 2018-Apr-05 04:31 UTC. Time now 2018-May-26 04:32 UTC.
Position N 40°02' E 026°15'.
Warning: this ship's position is 51 days out of date.

Length 164 m; draft 6.3 m.

Type: Cargo ship. MMSI: 564994000.

Date/timePositionNaut miles runAvg speedWind from/ knotsBaromVisibWave heightAir tempDewpointWater temp
2018-Apr-05 04:31N 40°02' E 026°15'013.7
2018-Apr-05 04:30N 40°02' E 026°15'7 9.0
2018-Apr-05 03:45N 39°60' E 026°06'410.4
2018-Apr-05 03:22N 39°58' E 026°01'514.5
2018-Apr-05 03:00N 39°55' E 025°56'816.5
2018-Apr-05 02:30N 39°49' E 025°48'11516.4
2018-Apr-04 19:28N 37°54' E 025°32'816.6
2018-Apr-04 19:00N 37°47' E 025°35'816.5
2018-Apr-04 18:30N 37°39' E 025°38'1016.6
2018-Apr-04 17:56N 37°30' E 025°41'1012.3
2018-Apr-04 17:08N 37°21' E 025°35'216.2
2018-Apr-04 17:00N 37°20' E 025°33'816.6
2018-Apr-04 16:30N 37°17' E 025°23'816.6
2018-Apr-04 16:00N 37°15' E 025°13'816.6
2018-Apr-04 15:30N 37°15' E 025°03'816.7
2018-Apr-04 15:00N 37°13' E 024°52'48515.1
2018-Apr-03 06:56N 36°12' E 014°52'717.0
2018-Apr-03 06:30N 36°13' E 014°43'815.9
2018-Apr-03 06:00N 36°14' E 014°33'918.4
2018-Apr-03 05:29N 36°17' E 014°22'714.4
2018-Apr-03 05:00N 36°20' E 014°14'916.7
2018-Apr-03 04:29N 36°23' E 014°04'816.0
2018-Apr-03 03:58N 36°26' E 013°54'716.1
2018-Apr-03 03:30N 36°29' E 013°46'916.0
2018-Apr-03 02:55N 36°33' E 013°35'2316.7
2018-Apr-03 01:32N 36°42' E 013°09'313.4
2018-Apr-03 01:21N 36°43' E 013°06'616.3
2018-Apr-03 00:59N 36°45' E 012°59'1016.6
2018-Apr-03 00:23N 36°49' E 012°47'719.0
2018-Apr-03 00:00N 36°52' E 012°39'33115.9
2018-Apr-02 03:15N 37°22' E 005°46'3516.5
2018-Apr-02 01:07N 37°18' E 005°02'216.4
2018-Apr-02 00:59N 37°18' E 004°59'816.2
2018-Apr-02 00:29N 37°16' E 004°49'816.8
2018-Apr-02 00:00N 37°15' E 004°39'816.9
2018-Apr-01 23:30N 37°14' E 004°29'1316.2
2018-Apr-01 22:43N 37°14' E 004°13'316.3
2018-Apr-01 22:30N 37°13' E 004°08'916.8
2018-Apr-01 22:00N 37°13' E 003°58'916.6
2018-Apr-01 21:27N 37°13' E 003°46'716.0
2018-Apr-01 21:00N 37°12' E 003°37'816.3
2018-Apr-01 20:30N 37°12' E 003°27'816.3
2018-Apr-01 20:01N 37°11' E 003°17'916.7
2018-Apr-01 19:28N 37°09' E 003°06'916.3
2018-Apr-01 18:56N 37°07' E 002°55'716.4
2018-Apr-01 18:30N 37°06' E 002°46'816.3
2018-Apr-01 18:01N 37°04' E 002°37'916.7
2018-Apr-01 17:29N 37°02' E 002°26'817.3
2018-Apr-01 17:00N 36°60' E 002°16'917.6
2018-Apr-01 16:30N 36°58' E 002°05'817.0
2018-Apr-01 16:00N 36°56' E 001°55'816.8
2018-Apr-01 15:30N 36°53' E 001°45'816.8
2018-Apr-01 15:00N 36°51' E 001°35'916.9
2018-Apr-01 14:30N 36°49' E 001°24'816.8
2018-Apr-01 14:00N 36°47' E 001°14'816.8
2018-Apr-01 13:30N 36°45' E 001°04'816.7
2018-Apr-01 13:01N 36°43' E 000°54'816.6
2018-Apr-01 12:30N 36°41' E 000°44'916.7
2018-Apr-01 11:58N 36°39' E 000°33'816.9
2018-Apr-01 11:30N 36°36' E 000°24'916.9
2018-Apr-01 11:00N 36°34' E 000°13'26317.5
2018-Mar-31 19:58N 35°59' W 005°10'919.2
2018-Mar-31 19:30N 35°58' W 005°21'26214.6
2018-Mar-31 01:35N 38°18' W 009°60'117.3
2018-Mar-31 01:30N 38°20' W 010°00'917.3
2018-Mar-31 01:00N 38°28' W 010°04'917.1
2018-Mar-31 00:28N 38°37' W 010°06'817.4
2018-Mar-31 00:00N 38°45' W 010°06'917.1
2018-Mar-30 23:30N 38°53' W 010°06'817.0
2018-Mar-30 23:00N 39°02' W 010°05'917.4
2018-Mar-30 22:30N 39°10' W 010°04'917.2
2018-Mar-30 22:00N 39°19' W 010°02'  
2018-Mar-28 12:16N 49°49' W 003°21'817.2
2018-Mar-28 11:47N 49°52' W 003°10'618.0
2018-Mar-28 11:26N 49°56' W 003°01'918.4
2018-Mar-28 10:58N 49°58' W 002°49'9416.5
2018-Mar-28 05:15N 50°26' W 000°28'415.0
2018-Mar-28 05:00N 50°28' W 000°22'815.4
2018-Mar-28 04:30N 50°30' W 000°11'815.8
2018-Mar-28 04:00N 50°32' E 000°01'816.2
2018-Mar-28 03:30N 50°34' E 000°14'816.7
2018-Mar-28 03:00N 50°36' E 000°26'917.2
2018-Mar-28 02:30N 50°38' E 000°39'917.1
2018-Mar-28 02:00N 50°42' E 000°51'917.1
2018-Mar-28 01:30N 50°47' E 001°02'1116.8
2018-Mar-28 00:53N 50°53' E 001°16'616.2
2018-Mar-28 00:30N 50°58' E 001°22'815.9
2018-Mar-28 00:00N 51°04' E 001°30'714.8
2018-Mar-27 23:30N 51°09' E 001°38'714.8
2018-Mar-27 23:00N 51°15' E 001°47'815.0
2018-Mar-27 22:30N 51°21' E 001°52'714.9
2018-Mar-27 22:00N 51°28' E 001°58'815.5
2018-Mar-27 21:30N 51°33' E 002°06'815.9
2018-Mar-27 21:00N 51°39' E 002°16'816.3
2018-Mar-27 20:30N 51°45' E 002°25'13616.8
2018-Mar-27 12:26N 53°34' E 004°37'31516.7
2018-Mar-26 17:35N 57°45' E 010°16'218.0
2018-Mar-26 17:27N 57°46' E 010°20'818.0
2018-Mar-26 17:00N 57°49' E 010°34'918.0
2018-Mar-26 16:30N 57°48' E 010°50'917.9
2018-Mar-26 16:00N 57°41' E 011°01'917.8
2018-Mar-26 15:30N 57°35' E 011°13'917.5
2018-Mar-26 15:00N 57°29' E 011°25'816.6
2018-Mar-26 14:30N 57°21' E 011°31'817.0
2018-Mar-26 14:00N 57°13' E 011°36'917.1
2018-Mar-26 13:30N 57°05' E 011°41'5916.4
2018-Mar-26 09:55N 56°11' E 012°24'716.6
2018-Mar-26 09:30N 56°07' E 012°34'714.4
2018-Mar-26 09:00N 56°01' E 012°41'714.7
2018-Mar-26 08:30N 55°54' E 012°44'815.7
2018-Mar-26 08:00N 55°46' E 012°42'714.8
2018-Mar-26 07:30N 55°39' E 012°42'612.0
2018-Mar-26 07:00N 55°33' E 012°42'612.7
2018-Mar-26 06:30N 55°27' E 012°42'714.8
2018-Mar-26 06:01N 55°19' E 012°40'816.1
2018-Mar-26 05:30N 55°16' E 012°53'917.3
2018-Mar-26 05:00N 55°15' E 013°08'  

Dump ship's entire track history